Terminal Aerodrome Forecast
Issued by NWS Grand Rapids, MI

Home | Current Version | Previous Version | Text Only | Print | Product List | Glossary On
Versions: 1 2 3 4 5 6 7 8 9 10 11 12 13 14 15 16 17 18 19 20 21 22 23
000
FTUS43 KGRR 220901 AAD
TAFGRR
TAF AMD
KGRR 220901Z 2209/2306 19009KT 2SM BR SCT040
     FM221500 22010KT 4SM BR OVC015
     FM221900 21015G25KT P6SM SCT080
     FM230000 20007KT P6SM SCT200=

USA.gov is the U.S. government's official web portal to all federal, state and local government web resources and services.